Superstition Mountain, Arizona
Current Conditions -  °F | °C
As of 2:55 AM on Thursday 23 Oct 2014 (Local Time) from KIWA Reporting Station
Clear Clear  
Wind Chill: 64°   Ceiling: Unl
Heat Index: 64°   Visibility: 10mi
Dew Point: 52°   Wind: 6mph
Humidity: 64%   Direction: 110°ESE
Pressure: 30"   Gusts: NA
Location:  33.2782°N, 111.363°W
Report Text: KIWA 230955Z AUTO 11005KT 10SM CLR 18/11 A3000 RMK AO2
Loading
Personal Weather Stations






























Interactive Weather Map
Tropical Storm Tracking
New forecast layout! Learn more

10-Day Weather Forecast

Advertisements
Track Severe Weather on mobile